createdAt,value
2022-11-30T00:01:25.907Z,7.50
2022-11-30T00:06:30.011Z,6.75
2022-11-30T00:11:33.842Z,7.75
2022-11-30T00:16:36.692Z,7.75
2022-11-30T00:21:40.993Z,7.75
2022-11-30T00:26:44.459Z,7.75
2022-11-30T00:31:47.446Z,6.50
2022-11-30T00:36:51.610Z,7.25
2022-11-30T00:41:54.382Z,7.00
2022-11-30T00:46:57.141Z,6.75
2022-11-30T00:52:01.443Z,6.25
2022-11-30T00:57:04.284Z,7.50
2022-11-30T01:02:07.242Z,7.25
2022-11-30T01:07:11.424Z,6.00
2022-11-30T01:12:15.608Z,6.00
2022-11-30T01:17:18.895Z,6.75
2022-11-30T01:22:23.019Z,6.75
2022-11-30T01:27:25.815Z,6.00
2022-11-30T01:32:29.187Z,6.75
2022-11-30T01:37:33.583Z,7.00
2022-11-30T01:42:37.966Z,6.75
2022-11-30T01:47:44.260Z,6.00
2022-11-30T01:52:51.708Z,6.00
2022-11-30T01:58:00.084Z,6.25
2022-11-30T02:03:08.468Z,5.75
2022-11-30T02:08:13.019Z,7.00
2022-11-30T02:13:31.587Z,6.00
2022-11-30T02:18:47.848Z,5.75
2022-11-30T02:24:07.432Z,6.00
2022-11-30T02:29:17.561Z,6.00
2022-11-30T02:34:23.181Z,5.25
2022-11-30T02:39:26.200Z,6.00
2022-11-30T02:44:31.387Z,6.00
2022-11-30T02:49:39.371Z,5.00
2022-11-30T02:54:42.587Z,5.00
2022-11-30T02:59:46.885Z,5.25
2022-11-30T03:04:49.722Z,5.75
2022-11-30T03:09:52.560Z,6.25
2022-11-30T03:14:56.645Z,5.00
2022-11-30T03:19:59.438Z,6.00
2022-11-30T03:25:02.419Z,5.00
2022-11-30T03:30:08.215Z,4.00
2022-11-30T03:35:11.196Z,6.50
2022-11-30T03:40:14.250Z,6.00
2022-11-30T03:45:18.615Z,6.00
2022-11-30T03:50:21.407Z,5.75
2022-11-30T03:55:24.307Z,5.00
2022-11-30T04:00:28.509Z,5.25
2022-11-30T04:05:31.416Z,5.00
2022-11-30T04:10:34.355Z,4.50
2022-11-30T04:15:38.466Z,5.50
2022-11-30T04:20:41.962Z,4.25
2022-11-30T04:25:44.841Z,5.25
2022-11-30T04:30:49.321Z,6.00
2022-11-30T04:35:55.961Z,4.50
2022-11-30T04:40:58.768Z,5.25
2022-11-30T04:46:03.085Z,4.50
2022-11-30T04:51:08.229Z,5.00
2022-11-30T04:56:12.933Z,4.50
2022-11-30T05:01:17.523Z,5.75
2022-11-30T05:06:20.571Z,4.25
2022-11-30T05:11:23.346Z,5.00
2022-11-30T05:16:27.778Z,4.00
2022-11-30T05:21:30.680Z,4.00
2022-11-30T05:26:34.251Z,5.00
2022-11-30T05:31:39.788Z,5.00
2022-11-30T05:36:42.672Z,5.00
2022-11-30T05:41:45.540Z,4.50
2022-11-30T05:46:50.089Z,4.00
2022-11-30T05:51:52.960Z,3.75
2022-11-30T05:56:55.853Z,5.00
2022-11-30T06:02:00.067Z,4.50
2022-11-30T06:07:04.374Z,4.00
2022-11-30T06:12:07.847Z,4.50
2022-11-30T06:17:11.980Z,5.00
2022-11-30T06:22:14.797Z,4.50
2022-11-30T06:27:17.596Z,5.00
2022-11-30T06:32:21.737Z,6.00
2022-11-30T06:37:24.464Z,4.75
2022-11-30T06:42:27.239Z,4.75
2022-11-30T06:47:31.468Z,5.00
2022-11-30T06:52:34.368Z,5.25
2022-11-30T06:57:37.205Z,4.50
2022-11-30T07:02:41.647Z,6.25
2022-11-30T07:07:44.451Z,5.00
2022-11-30T07:12:47.283Z,4.00
2022-11-30T07:17:51.409Z,5.00
2022-11-30T07:22:56.441Z,4.25
2022-11-30T07:27:59.282Z,5.00
2022-11-30T07:33:03.549Z,3.75
2022-11-30T07:38:09.707Z,5.00
2022-11-30T07:43:12.755Z,3.75
2022-11-30T07:48:16.841Z,4.00
2022-11-30T07:53:19.804Z,4.25
2022-11-30T07:58:22.561Z,4.50
2022-11-30T08:03:26.656Z,5.00
2022-11-30T08:08:33.571Z,4.00
2022-11-30T08:13:36.397Z,4.00
2022-11-30T08:18:41.121Z,4.75
2022-11-30T08:23:46.074Z,4.00
2022-11-30T08:28:50.699Z,4.00
2022-11-30T08:33:58.414Z,3.75
2022-11-30T08:39:04.839Z,5.00
2022-11-30T08:44:08.016Z,5.50
2022-11-30T08:49:27.828Z,5.00
2022-11-30T08:54:30.669Z,4.00
2022-11-30T08:59:33.681Z,4.50
2022-11-30T09:04:37.832Z,4.50
2022-11-30T09:09:40.664Z,4.50
2022-11-30T09:14:45.085Z,4.75
2022-11-30T09:19:49.366Z,3.50
2022-11-30T09:24:52.324Z,4.50
2022-11-30T09:29:55.091Z,5.25
2022-11-30T09:34:59.345Z,3.75
2022-11-30T09:40:02.301Z,5.00
2022-11-30T09:45:12.985Z,4.00
2022-11-30T09:50:21.468Z,3.00
2022-11-30T09:55:29.673Z,5.25
2022-11-30T10:00:34.405Z,4.00
2022-11-30T10:05:47.836Z,4.00
2022-11-30T10:11:13.621Z,4.00
2022-11-30T10:16:32.065Z,7.00
2022-11-30T10:21:51.780Z,9.00
2022-11-30T10:26:56.189Z,10.75
2022-11-30T10:32:01.182Z,11.25
2022-11-30T10:37:13.553Z,14.00
2022-11-30T10:42:21.949Z,19.00
2022-11-30T10:47:31.038Z,19.40
2022-11-30T10:52:42.743Z,21.00
2022-11-30T10:57:47.967Z,19.00
2022-11-30T11:02:52.057Z,18.25
2022-11-30T11:08:05.741Z,19.00
2022-11-30T11:13:17.585Z,17.25
2022-11-30T11:18:24.083Z,16.50
2022-11-30T11:23:33.518Z,15.00
2022-11-30T11:28:38.210Z,17.00
2022-11-30T11:33:51.983Z,16.50
2022-11-30T11:38:57.533Z,16.50
2022-11-30T11:44:05.326Z,15.25
2022-11-30T11:49:20.217Z,15.00
2022-11-30T11:54:29.505Z,15.00
2022-11-30T11:59:41.770Z,14.50
2022-11-30T12:04:49.248Z,14.00
2022-11-30T12:10:21.860Z,14.00
2022-11-30T12:15:33.996Z,12.50
2022-11-30T12:20:51.724Z,14.00
2022-11-30T12:26:03.175Z,14.25
2022-11-30T12:31:13.805Z,12.50
2022-11-30T12:36:26.368Z,14.00
2022-11-30T12:41:42.983Z,13.75
2022-11-30T12:46:57.344Z,13.50
2022-11-30T12:52:07.711Z,13.50
2022-11-30T12:57:22.415Z,12.75
2022-11-30T13:02:54.110Z,13.00
2022-11-30T13:08:04.533Z,13.00
2022-11-30T13:13:15.457Z,12.25
2022-11-30T13:18:21.134Z,13.00
2022-11-30T13:23:35.881Z,11.50
2022-11-30T13:29:02.051Z,12.25
2022-11-30T13:34:04.877Z,11.00
2022-11-30T13:39:28.915Z,11.75
2022-11-30T13:44:35.138Z,12.25
2022-11-30T13:49:38.436Z,10.00
2022-11-30T13:54:43.907Z,11.50
2022-11-30T13:59:51.544Z,10.50
2022-11-30T14:04:54.367Z,11.00
2022-11-30T14:10:00.099Z,10.50
2022-11-30T14:15:25.363Z,10.25
2022-11-30T14:20:37.963Z,10.75
2022-11-30T14:25:46.836Z,11.75
2022-11-30T14:30:52.689Z,11.00
2022-11-30T14:47:30.062Z,11.00
2022-11-30T14:52:56.445Z,10.00
2022-11-30T14:58:13.220Z,10.25
2022-11-30T15:03:27.095Z,8.25
2022-11-30T15:08:36.210Z,10.75
2022-11-30T15:13:42.404Z,8.75
2022-11-30T15:18:46.619Z,10.50
2022-11-30T15:23:51.405Z,10.00
2022-11-30T15:28:59.135Z,9.25
2022-11-30T15:34:04.840Z,9.25
2022-11-30T15:39:09.632Z,9.00
2022-11-30T15:44:25.904Z,8.00
2022-11-30T15:49:32.151Z,9.50
2022-11-30T15:54:50.169Z,8.00
2022-11-30T16:00:09.865Z,9.00
2022-11-30T16:05:26.869Z,8.50
2022-11-30T16:10:33.826Z,7.50
2022-11-30T16:15:37.539Z,10.25
2022-11-30T16:20:43.437Z,8.50
2022-11-30T16:25:47.902Z,9.00
2022-11-30T16:30:51.282Z,8.00
2022-11-30T16:35:59.346Z,8.25
2022-11-30T16:41:15.124Z,9.50
2022-11-30T16:46:19.967Z,8.00
2022-11-30T16:51:27.233Z,8.25
2022-11-30T16:56:30.230Z,10.25
2022-11-30T17:01:36.649Z,10.75
2022-11-30T17:06:40.879Z,10.75
2022-11-30T17:11:45.432Z,11.50
2022-11-30T17:16:48.524Z,12.25
2022-11-30T17:21:52.813Z,9.75
2022-11-30T17:26:55.620Z,10.50
2022-11-30T17:31:58.385Z,11.75
2022-11-30T17:37:02.578Z,10.50
2022-11-30T17:42:05.546Z,11.25
2022-11-30T17:47:08.953Z,9.75
2022-11-30T17:52:13.104Z,11.50
2022-11-30T17:57:16.008Z,10.50
2022-11-30T18:02:18.828Z,9.50
2022-11-30T18:07:23.075Z,10.00
2022-11-30T18:12:25.913Z,10.50
2022-11-30T18:17:28.738Z,11.25
2022-11-30T18:22:33.011Z,9.25
2022-11-30T18:27:35.975Z,12.00
2022-11-30T18:32:38.831Z,11.00
2022-11-30T18:37:43.472Z,11.50
2022-11-30T18:42:48.897Z,11.00
2022-11-30T18:47:52.058Z,13.00
2022-11-30T18:52:56.623Z,11.75
2022-11-30T18:58:01.063Z,11.75
2022-11-30T19:03:04.018Z,12.25
2022-11-30T19:08:11.459Z,13.75
2022-11-30T19:13:14.207Z,13.25
2022-11-30T19:18:21.789Z,13.50
2022-11-30T19:23:27.888Z,12.25
2022-11-30T19:28:31.310Z,12.50
2022-11-30T19:33:36.484Z,13.00
2022-11-30T19:38:41.157Z,11.75
2022-11-30T19:43:49.401Z,13.00
2022-11-30T19:48:57.974Z,14.75
2022-11-30T19:54:02.640Z,13.00
2022-11-30T19:59:06.287Z,13.50
2022-11-30T20:04:09.344Z,12.50
2022-11-30T20:09:13.428Z,11.50
2022-11-30T20:14:17.319Z,11.50
2022-11-30T20:19:20.063Z,12.00
2022-11-30T20:24:24.201Z,12.00
2022-11-30T20:29:26.981Z,12.00
2022-11-30T20:34:34.320Z,12.00
2022-11-30T20:39:45.764Z,12.00
2022-11-30T20:44:49.921Z,11.50
2022-11-30T20:49:53.209Z,11.75
2022-11-30T20:54:57.524Z,11.50
2022-11-30T21:00:00.327Z,11.75
2022-11-30T21:05:03.282Z,11.50
2022-11-30T21:10:09.134Z,12.00
2022-11-30T21:15:12.276Z,10.25
2022-11-30T21:20:15.162Z,12.00
2022-11-30T21:25:19.777Z,12.75
2022-11-30T21:30:22.543Z,11.50
2022-11-30T21:35:25.410Z,12.00
2022-11-30T21:40:29.560Z,12.00
2022-11-30T21:45:32.344Z,13.00
2022-11-30T21:50:35.079Z,12.00
2022-11-30T21:55:39.361Z,13.00
2022-11-30T22:00:42.218Z,12.50
2022-11-30T22:05:45.025Z,12.75
2022-11-30T22:10:49.317Z,12.00
2022-11-30T22:15:58.530Z,13.25
2022-11-30T22:21:05.950Z,11.75
2022-11-30T22:26:15.067Z,9.50
2022-11-30T22:31:20.438Z,11.75
2022-11-30T22:36:25.567Z,12.00
2022-11-30T22:41:30.170Z,12.00
2022-11-30T22:46:35.202Z,11.00
2022-11-30T22:51:39.016Z,12.00
2022-11-30T22:56:43.267Z,12.00
2022-11-30T23:01:47.677Z,10.75
2022-11-30T23:06:51.630Z,11.50
2022-11-30T23:11:55.771Z,10.75
2022-11-30T23:16:58.539Z,12.00
2022-11-30T23:22:01.397Z,10.50
2022-11-30T23:27:05.517Z,12.00
2022-11-30T23:32:09.098Z,11.00
2022-11-30T23:37:11.885Z,11.25
2022-11-30T23:42:16.021Z,10.75
2022-11-30T23:47:18.909Z,9.25
2022-11-30T23:52:21.894Z,10.25
2022-11-30T23:57:26.049Z,11.00
